sensor_id;sensor_type;location;lat;lon;timestamp;temperature;humidity
60287;DHT22;46141;52.382;5.270;2023-04-08T00:01:38;21.20;62.60
60287;DHT22;46141;52.382;5.270;2023-04-08T00:04:04;21.20;62.50
60287;DHT22;46141;52.382;5.270;2023-04-08T00:06:29;21.20;62.50
60287;DHT22;46141;52.382;5.270;2023-04-08T00:08:56;21.20;62.50
60287;DHT22;46141;52.382;5.270;2023-04-08T00:11:21;21.20;62.50
60287;DHT22;46141;52.382;5.270;2023-04-08T00:13:47;21.20;62.50
60287;DHT22;46141;52.382;5.270;2023-04-08T00:16:12;21.20;62.50
60287;DHT22;46141;52.382;5.270;2023-04-08T00:18:38;21.20;62.60
60287;DHT22;46141;52.382;5.270;2023-04-08T00:21:04;21.20;62.60
60287;DHT22;46141;52.382;5.270;2023-04-08T00:23:29;21.20;62.50
60287;DHT22;46141;52.382;5.270;2023-04-08T00:25:55;21.20;62.60
60287;DHT22;46141;52.382;5.270;2023-04-08T00:28:20;21.20;62.50
60287;DHT22;46141;52.382;5.270;2023-04-08T00:30:46;21.20;62.50
60287;DHT22;46141;52.382;5.270;2023-04-08T00:33:12;21.20;62.50
60287;DHT22;46141;52.382;5.270;2023-04-08T00:35:37;21.20;62.50
60287;DHT22;46141;52.382;5.270;2023-04-08T00:38:03;21.20;62.60
60287;DHT22;46141;52.382;5.270;2023-04-08T00:40:33;21.20;62.50
60287;DHT22;46141;52.382;5.270;2023-04-08T00:42:59;21.20;62.50
60287;DHT22;46141;52.382;5.270;2023-04-08T00:45:24;21.20;62.50
60287;DHT22;46141;52.382;5.270;2023-04-08T00:47:50;21.20;62.40
60287;DHT22;46141;52.382;5.270;2023-04-08T00:50:17;21.20;62.40
60287;DHT22;46141;52.382;5.270;2023-04-08T00:52:44;21.10;62.40
60287;DHT22;46141;52.382;5.270;2023-04-08T00:55:10;21.20;63.10
60287;DHT22;46141;52.382;5.270;2023-04-08T00:57:36;21.20;62.40
60287;DHT22;46141;52.382;5.270;2023-04-08T01:00:03;21.10;62.40
60287;DHT22;46141;52.382;5.270;2023-04-08T01:02:41;21.10;62.40
60287;DHT22;46141;52.382;5.270;2023-04-08T01:05:42;21.10;62.50
60287;DHT22;46141;52.382;5.270;2023-04-08T01:08:14;21.10;62.50
60287;DHT22;46141;52.382;5.270;2023-04-08T01:10:44;21.20;62.40
60287;DHT22;46141;52.382;5.270;2023-04-08T01:13:17;21.20;62.40
60287;DHT22;46141;52.382;5.270;2023-04-08T01:15:44;21.20;62.40
60287;DHT22;46141;52.382;5.270;2023-04-08T01:18:13;21.10;62.40
60287;DHT22;46141;52.382;5.270;2023-04-08T01:20:41;21.10;62.30
60287;DHT22;46141;52.382;5.270;2023-04-08T01:23:45;21.10;62.20
60287;DHT22;46141;52.382;5.270;2023-04-08T01:26:24;21.10;62.20
60287;DHT22;46141;52.382;5.270;2023-04-08T01:28:53;21.10;62.20
60287;DHT22;46141;52.382;5.270;2023-04-08T01:31:21;21.10;62.10
60287;DHT22;46141;52.382;5.270;2023-04-08T01:33:51;21.10;62.10
60287;DHT22;46141;52.382;5.270;2023-04-08T01:36:19;21.10;62.20
60287;DHT22;46141;52.382;5.270;2023-04-08T01:38:47;21.10;62.20
60287;DHT22;46141;52.382;5.270;2023-04-08T01:41:16;21.10;62.20
60287;DHT22;46141;52.382;5.270;2023-04-08T01:43:43;21.10;62.10
60287;DHT22;46141;52.382;5.270;2023-04-08T01:46:11;21.10;62.10
60287;DHT22;46141;52.382;5.270;2023-04-08T01:48:39;21.10;62.10
60287;DHT22;46141;52.382;5.270;2023-04-08T01:51:06;21.10;62.10
60287;DHT22;46141;52.382;5.270;2023-04-08T01:53:33;21.10;62.10
60287;DHT22;46141;52.382;5.270;2023-04-08T01:56:06;21.10;62.00
60287;DHT22;46141;52.382;5.270;2023-04-08T01:58:40;21.10;62.00
60287;DHT22;46141;52.382;5.270;2023-04-08T02:01:11;21.10;62.00
60287;DHT22;46141;52.382;5.270;2023-04-08T02:03:42;21.10;62.10
60287;DHT22;46141;52.382;5.270;2023-04-08T02:06:08;21.10;62.00
60287;DHT22;46141;52.382;5.270;2023-04-08T02:08:34;21.10;62.00
60287;DHT22;46141;52.382;5.270;2023-04-08T02:11:01;21.10;62.00
60287;DHT22;46141;52.382;5.270;2023-04-08T02:13:29;21.10;62.00
60287;DHT22;46141;52.382;5.270;2023-04-08T02:19:05;21.10;62.00
60287;DHT22;46141;52.382;5.270;2023-04-08T02:21:45;21.10;61.90
60287;DHT22;46141;52.382;5.270;2023-04-08T02:24:15;21.10;61.90
60287;DHT22;46141;52.382;5.270;2023-04-08T02:26:43;21.00;61.80
60287;DHT22;46141;52.382;5.270;2023-04-08T02:29:14;21.00;61.90
60287;DHT22;46141;52.382;5.270;2023-04-08T02:31:42;21.00;61.80
60287;DHT22;46141;52.382;5.270;2023-04-08T02:34:10;21.00;61.80
60287;DHT22;46141;52.382;5.270;2023-04-08T02:36:36;21.10;61.80
60287;DHT22;46141;52.382;5.270;2023-04-08T02:39:03;21.10;61.90
60287;DHT22;46141;52.382;5.270;2023-04-08T02:41:30;21.10;61.70
60287;DHT22;46141;52.382;5.270;2023-04-08T02:43:56;21.10;61.80
60287;DHT22;46141;52.382;5.270;2023-04-08T02:46:22;21.10;62.00
60287;DHT22;46141;52.382;5.270;2023-04-08T02:48:48;21.10;61.70
60287;DHT22;46141;52.382;5.270;2023-04-08T02:51:13;21.10;61.60
60287;DHT22;46141;52.382;5.270;2023-04-08T02:53:39;21.10;61.70
60287;DHT22;46141;52.382;5.270;2023-04-08T02:56:05;21.10;61.60
60287;DHT22;46141;52.382;5.270;2023-04-08T02:58:31;21.10;61.60
60287;DHT22;46141;52.382;5.270;2023-04-08T03:00:58;21.10;61.50
60287;DHT22;46141;52.382;5.270;2023-04-08T03:03:23;21.10;61.40
60287;DHT22;46141;52.382;5.270;2023-04-08T03:05:56;21.10;61.50
60287;DHT22;46141;52.382;5.270;2023-04-08T03:08:22;21.10;61.30
60287;DHT22;46141;52.382;5.270;2023-04-08T03:10:48;21.10;61.30
60287;DHT22;46141;52.382;5.270;2023-04-08T03:13:15;21.10;61.30
60287;DHT22;46141;52.382;5.270;2023-04-08T03:15:41;21.10;61.20
60287;DHT22;46141;52.382;5.270;2023-04-08T03:18:07;21.10;61.60
60287;DHT22;46141;52.382;5.270;2023-04-08T03:20:33;21.00;61.10
60287;DHT22;46141;52.382;5.270;2023-04-08T03:22:59;21.00;61.10
60287;DHT22;46141;52.382;5.270;2023-04-08T03:25:25;21.10;61.10
60287;DHT22;46141;52.382;5.270;2023-04-08T03:27:50;21.10;61.00
60287;DHT22;46141;52.382;5.270;2023-04-08T03:30:16;21.10;60.90
60287;DHT22;46141;52.382;5.270;2023-04-08T03:32:42;21.00;60.90
60287;DHT22;46141;52.382;5.270;2023-04-08T03:35:08;21.00;60.80
60287;DHT22;46141;52.382;5.270;2023-04-08T03:37:34;21.00;60.80
60287;DHT22;46141;52.382;5.270;2023-04-08T03:39:59;21.00;60.80
60287;DHT22;46141;52.382;5.270;2023-04-08T03:42:25;21.00;60.70
60287;DHT22;46141;52.382;5.270;2023-04-08T03:44:51;21.00;60.70
60287;DHT22;46141;52.382;5.270;2023-04-08T03:47:17;21.00;60.70
60287;DHT22;46141;52.382;5.270;2023-04-08T03:49:42;21.00;60.70
60287;DHT22;46141;52.382;5.270;2023-04-08T03:52:08;21.00;60.60
60287;DHT22;46141;52.382;5.270;2023-04-08T03:54:34;21.00;60.60
60287;DHT22;46141;52.382;5.270;2023-04-08T03:56:59;21.00;60.60
60287;DHT22;46141;52.382;5.270;2023-04-08T03:59:25;20.90;60.40
60287;DHT22;46141;52.382;5.270;2023-04-08T04:01:51;21.00;60.40
60287;DHT22;46141;52.382;5.270;2023-04-08T04:04:18;21.00;60.40
60287;DHT22;46141;52.382;5.270;2023-04-08T04:06:43;20.90;60.40
60287;DHT22;46141;52.382;5.270;2023-04-08T04:09:09;21.00;60.40
60287;DHT22;46141;52.382;5.270;2023-04-08T04:11:35;21.00;60.30
60287;DHT22;46141;52.382;5.270;2023-04-08T04:14:01;21.00;60.30
60287;DHT22;46141;52.382;5.270;2023-04-08T04:16:27;20.90;60.20
60287;DHT22;46141;52.382;5.270;2023-04-08T04:18:52;20.90;60.10
60287;DHT22;46141;52.382;5.270;2023-04-08T04:21:19;20.90;60.10
60287;DHT22;46141;52.382;5.270;2023-04-08T04:23:44;20.90;60.10
60287;DHT22;46141;52.382;5.270;2023-04-08T04:26:10;20.90;60.10
60287;DHT22;46141;52.382;5.270;2023-04-08T04:28:37;20.90;60.10
60287;DHT22;46141;52.382;5.270;2023-04-08T04:31:03;20.90;60.00
60287;DHT22;46141;52.382;5.270;2023-04-08T04:33:29;20.90;60.00
60287;DHT22;46141;52.382;5.270;2023-04-08T04:35:55;20.90;60.00
60287;DHT22;46141;52.382;5.270;2023-04-08T04:38:22;20.90;59.80
60287;DHT22;46141;52.382;5.270;2023-04-08T04:40:47;20.90;59.90
60287;DHT22;46141;52.382;5.270;2023-04-08T04:43:13;20.90;59.90
60287;DHT22;46141;52.382;5.270;2023-04-08T04:45:38;20.90;59.80
60287;DHT22;46141;52.382;5.270;2023-04-08T04:48:05;20.90;59.70
60287;DHT22;46141;52.382;5.270;2023-04-08T04:50:30;20.90;59.70
60287;DHT22;46141;52.382;5.270;2023-04-08T04:52:56;20.90;59.70
60287;DHT22;46141;52.382;5.270;2023-04-08T04:55:22;20.90;59.70
60287;DHT22;46141;52.382;5.270;2023-04-08T04:57:48;20.90;59.60
60287;DHT22;46141;52.382;5.270;2023-04-08T05:00:14;20.90;59.60
60287;DHT22;46141;52.382;5.270;2023-04-08T05:02:41;20.90;59.60
60287;DHT22;46141;52.382;5.270;2023-04-08T05:05:07;20.90;59.50
60287;DHT22;46141;52.382;5.270;2023-04-08T05:07:36;20.90;59.40
60287;DHT22;46141;52.382;5.270;2023-04-08T05:10:03;20.90;59.40
60287;DHT22;46141;52.382;5.270;2023-04-08T05:12:29;20.90;59.50
60287;DHT22;46141;52.382;5.270;2023-04-08T05:14:57;20.80;59.40
60287;DHT22;46141;52.382;5.270;2023-04-08T05:17:23;20.80;59.30
60287;DHT22;46141;52.382;5.270;2023-04-08T05:19:48;20.80;59.10
60287;DHT22;46141;52.382;5.270;2023-04-08T05:22:14;20.80;59.20
60287;DHT22;46141;52.382;5.270;2023-04-08T05:24:40;20.70;59.30
60287;DHT22;46141;52.382;5.270;2023-04-08T05:27:06;20.70;59.30
60287;DHT22;46141;52.382;5.270;2023-04-08T05:29:31;20.80;59.00
60287;DHT22;46141;52.382;5.270;2023-04-08T05:31:57;20.80;59.00
60287;DHT22;46141;52.382;5.270;2023-04-08T05:34:23;20.80;58.80
60287;DHT22;46141;52.382;5.270;2023-04-08T05:36:49;20.80;59.00
60287;DHT22;46141;52.382;5.270;2023-04-08T05:39:18;20.80;59.10
60287;DHT22;46141;52.382;5.270;2023-04-08T05:41:44;20.80;59.10
60287;DHT22;46141;52.382;5.270;2023-04-08T05:44:11;20.80;59.10
60287;DHT22;46141;52.382;5.270;2023-04-08T05:46:37;20.80;59.20
60287;DHT22;46141;52.382;5.270;2023-04-08T05:49:03;20.90;59.30
60287;DHT22;46141;52.382;5.270;2023-04-08T05:51:29;20.90;59.20
60287;DHT22;46141;52.382;5.270;2023-04-08T05:53:54;20.90;59.30
60287;DHT22;46141;52.382;5.270;2023-04-08T05:56:20;20.90;59.30
60287;DHT22;46141;52.382;5.270;2023-04-08T05:58:46;20.90;59.30
60287;DHT22;46141;52.382;5.270;2023-04-08T06:01:12;20.90;59.30
60287;DHT22;46141;52.382;5.270;2023-04-08T06:03:37;20.90;59.30
60287;DHT22;46141;52.382;5.270;2023-04-08T06:06:07;20.90;59.40
60287;DHT22;46141;52.382;5.270;2023-04-08T06:08:33;20.90;59.30
60287;DHT22;46141;52.382;5.270;2023-04-08T06:10:59;20.90;59.40
60287;DHT22;46141;52.382;5.270;2023-04-08T06:13:25;20.90;59.40
60287;DHT22;46141;52.382;5.270;2023-04-08T06:15:50;20.90;59.30
60287;DHT22;46141;52.382;5.270;2023-04-08T06:18:16;20.90;59.90
60287;DHT22;46141;52.382;5.270;2023-04-08T06:20:42;20.90;59.30
60287;DHT22;46141;52.382;5.270;2023-04-08T06:23:08;20.90;59.40
60287;DHT22;46141;52.382;5.270;2023-04-08T06:25:33;21.00;59.40
60287;DHT22;46141;52.382;5.270;2023-04-08T06:27:59;20.90;59.30
60287;DHT22;46141;52.382;5.270;2023-04-08T06:30:25;21.00;59.30
60287;DHT22;46141;52.382;5.270;2023-04-08T06:32:50;21.00;59.30
60287;DHT22;46141;52.382;5.270;2023-04-08T06:35:16;21.00;59.50
60287;DHT22;46141;52.382;5.270;2023-04-08T06:37:42;21.00;59.50
60287;DHT22;46141;52.382;5.270;2023-04-08T06:40:07;21.00;59.70
60287;DHT22;46141;52.382;5.270;2023-04-08T06:42:33;21.00;59.70
60287;DHT22;46141;52.382;5.270;2023-04-08T06:44:59;21.00;60.10
60287;DHT22;46141;52.382;5.270;2023-04-08T06:47:25;21.00;59.60
60287;DHT22;46141;52.382;5.270;2023-04-08T06:49:50;21.00;60.00
60287;DHT22;46141;52.382;5.270;2023-04-08T06:52:16;21.00;60.30
60287;DHT22;46141;52.382;5.270;2023-04-08T06:54:42;21.00;60.60
60287;DHT22;46141;52.382;5.270;2023-04-08T06:57:07;21.10;60.90
60287;DHT22;46141;52.382;5.270;2023-04-08T06:59:33;21.10;61.40
60287;DHT22;46141;52.382;5.270;2023-04-08T07:01:59;21.10;61.20
60287;DHT22;46141;52.382;5.270;2023-04-08T07:04:25;21.10;61.10
60287;DHT22;46141;52.382;5.270;2023-04-08T07:06:51;21.10;61.30
60287;DHT22;46141;52.382;5.270;2023-04-08T07:09:17;21.10;61.20
60287;DHT22;46141;52.382;5.270;2023-04-08T07:11:42;21.10;61.50
60287;DHT22;46141;52.382;5.270;2023-04-08T07:14:08;21.10;60.90
60287;DHT22;46141;52.382;5.270;2023-04-08T07:16:34;21.10;61.70
60287;DHT22;46141;52.382;5.270;2023-04-08T07:18:59;21.20;61.20
60287;DHT22;46141;52.382;5.270;2023-04-08T07:21:25;21.20;61.40
60287;DHT22;46141;52.382;5.270;2023-04-08T07:23:51;21.20;61.70
60287;DHT22;46141;52.382;5.270;2023-04-08T07:26:17;21.20;61.70
60287;DHT22;46141;52.382;5.270;2023-04-08T07:28:42;21.20;61.70
60287;DHT22;46141;52.382;5.270;2023-04-08T07:31:14;21.20;61.70
60287;DHT22;46141;52.382;5.270;2023-04-08T07:33:40;21.20;61.70
60287;DHT22;46141;52.382;5.270;2023-04-08T07:36:07;21.20;61.60
60287;DHT22;46141;52.382;5.270;2023-04-08T07:38:33;21.30;61.40
60287;DHT22;46141;52.382;5.270;2023-04-08T07:40:59;21.20;61.70
60287;DHT22;46141;52.382;5.270;2023-04-08T07:43:25;21.30;61.60
60287;DHT22;46141;52.382;5.270;2023-04-08T07:45:50;21.30;61.80
60287;DHT22;46141;52.382;5.270;2023-04-08T07:48:16;21.30;61.70
60287;DHT22;46141;52.382;5.270;2023-04-08T07:50:42;21.30;61.60
60287;DHT22;46141;52.382;5.270;2023-04-08T07:53:07;21.40;61.70
60287;DHT22;46141;52.382;5.270;2023-04-08T07:55:34;21.30;61.60
60287;DHT22;46141;52.382;5.270;2023-04-08T07:58:00;21.40;61.60
60287;DHT22;46141;52.382;5.270;2023-04-08T08:00:26;21.40;61.30
60287;DHT22;46141;52.382;5.270;2023-04-08T08:02:52;21.50;61.40
60287;DHT22;46141;52.382;5.270;2023-04-08T08:05:17;21.50;61.30
60287;DHT22;46141;52.382;5.270;2023-04-08T08:07:43;21.50;61.20
60287;DHT22;46141;52.382;5.270;2023-04-08T08:10:09;21.50;61.40
60287;DHT22;46141;52.382;5.270;2023-04-08T08:12:36;21.60;61.60
60287;DHT22;46141;52.382;5.270;2023-04-08T08:15:02;21.60;61.60
60287;DHT22;46141;52.382;5.270;2023-04-08T08:17:28;21.60;61.50
60287;DHT22;46141;52.382;5.270;2023-04-08T08:19:55;21.70;61.70
60287;DHT22;46141;52.382;5.270;2023-04-08T08:22:21;21.70;61.50
60287;DHT22;46141;52.382;5.270;2023-04-08T08:24:47;21.70;61.60
60287;DHT22;46141;52.382;5.270;2023-04-08T08:27:13;21.70;61.50
60287;DHT22;46141;52.382;5.270;2023-04-08T08:29:38;21.80;61.30
60287;DHT22;46141;52.382;5.270;2023-04-08T08:32:04;21.70;60.90
60287;DHT22;46141;52.382;5.270;2023-04-08T08:34:30;21.80;61.50
60287;DHT22;46141;52.382;5.270;2023-04-08T08:36:56;21.80;61.20
60287;DHT22;46141;52.382;5.270;2023-04-08T08:39:21;21.80;61.00
60287;DHT22;46141;52.382;5.270;2023-04-08T08:41:47;21.90;61.20
60287;DHT22;46141;52.382;5.270;2023-04-08T08:44:13;21.90;61.10
60287;DHT22;46141;52.382;5.270;2023-04-08T08:46:46;21.90;61.10
60287;DHT22;46141;52.382;5.270;2023-04-08T08:49:13;22.00;61.00
60287;DHT22;46141;52.382;5.270;2023-04-08T08:51:40;22.00;61.00
60287;DHT22;46141;52.382;5.270;2023-04-08T08:54:06;22.00;61.00
60287;DHT22;46141;52.382;5.270;2023-04-08T08:56:33;22.00;61.20
60287;DHT22;46141;52.382;5.270;2023-04-08T08:58:59;22.10;61.20
60287;DHT22;46141;52.382;5.270;2023-04-08T09:01:38;22.10;61.10
60287;DHT22;46141;52.382;5.270;2023-04-08T09:04:07;22.10;61.20
60287;DHT22;46141;52.382;5.270;2023-04-08T09:06:34;22.20;61.20
60287;DHT22;46141;52.382;5.270;2023-04-08T09:08:59;22.20;61.20
60287;DHT22;46141;52.382;5.270;2023-04-08T09:11:27;22.20;61.20
60287;DHT22;46141;52.382;5.270;2023-04-08T09:13:52;22.20;61.10
60287;DHT22;46141;52.382;5.270;2023-04-08T09:16:18;22.30;61.20
60287;DHT22;46141;52.382;5.270;2023-04-08T09:18:46;22.30;61.20
60287;DHT22;46141;52.382;5.270;2023-04-08T09:21:15;22.30;61.00
60287;DHT22;46141;52.382;5.270;2023-04-08T09:23:44;22.40;60.90
60287;DHT22;46141;52.382;5.270;2023-04-08T09:26:14;22.40;60.90
60287;DHT22;46141;52.382;5.270;2023-04-08T09:28:42;22.40;60.90
60287;DHT22;46141;52.382;5.270;2023-04-08T09:31:25;22.50;60.90
60287;DHT22;46141;52.382;5.270;2023-04-08T09:33:55;22.50;60.90
60287;DHT22;46141;52.382;5.270;2023-04-08T09:36:21;22.50;60.80
60287;DHT22;46141;52.382;5.270;2023-04-08T09:38:47;22.50;60.80
60287;DHT22;46141;52.382;5.270;2023-04-08T09:41:15;22.60;60.70
60287;DHT22;46141;52.382;5.270;2023-04-08T09:43:46;22.60;60.70
60287;DHT22;46141;52.382;5.270;2023-04-08T09:46:15;22.60;60.60
60287;DHT22;46141;52.382;5.270;2023-04-08T09:49:05;22.60;60.50
60287;DHT22;46141;52.382;5.270;2023-04-08T09:52:06;22.70;60.50
60287;DHT22;46141;52.382;5.270;2023-04-08T09:55:04;22.80;60.60
60287;DHT22;46141;52.382;5.270;2023-04-08T09:57:39;22.80;60.60
60287;DHT22;46141;52.382;5.270;2023-04-08T10:00:10;22.80;60.50
60287;DHT22;46141;52.382;5.270;2023-04-08T10:05:34;22.90;60.50
60287;DHT22;46141;52.382;5.270;2023-04-08T10:08:02;22.90;60.40
60287;DHT22;46141;52.382;5.270;2023-04-08T10:10:29;22.90;60.50
60287;DHT22;46141;52.382;5.270;2023-04-08T10:12:55;23.00;60.50
60287;DHT22;46141;52.382;5.270;2023-04-08T10:15:28;23.00;60.50
60287;DHT22;46141;52.382;5.270;2023-04-08T10:30:53;23.10;60.40
60287;DHT22;46141;52.382;5.270;2023-04-08T10:33:38;23.20;60.20
60287;DHT22;46141;52.382;5.270;2023-04-08T10:36:07;23.20;60.20
60287;DHT22;46141;52.382;5.270;2023-04-08T10:38:40;23.10;59.70
60287;DHT22;46141;52.382;5.270;2023-04-08T10:41:10;23.10;59.30
60287;DHT22;46141;52.382;5.270;2023-04-08T10:43:38;23.10;59.10
60287;DHT22;46141;52.382;5.270;2023-04-08T10:46:04;23.10;58.80
60287;DHT22;46141;52.382;5.270;2023-04-08T10:48:30;23.10;58.60
60287;DHT22;46141;52.382;5.270;2023-04-08T10:51:00;23.00;58.60
60287;DHT22;46141;52.382;5.270;2023-04-08T10:53:31;23.00;58.50
60287;DHT22;46141;52.382;5.270;2023-04-08T10:56:10;23.00;58.40
60287;DHT22;46141;52.382;5.270;2023-04-08T10:58:53;23.00;58.30
60287;DHT22;46141;52.382;5.270;2023-04-08T11:01:23;22.90;58.40
60287;DHT22;46141;52.382;5.270;2023-04-08T11:03:49;22.90;58.40
60287;DHT22;46141;52.382;5.270;2023-04-08T11:06:15;22.90;58.00
60287;DHT22;46141;52.382;5.270;2023-04-08T11:08:42;22.90;58.20
60287;DHT22;46141;52.382;5.270;2023-04-08T11:11:11;22.90;58.10
60287;DHT22;46141;52.382;5.270;2023-04-08T11:13:42;22.90;58.00
60287;DHT22;46141;52.382;5.270;2023-04-08T11:16:09;22.90;58.20
60287;DHT22;46141;52.382;5.270;2023-04-08T11:18:37;22.90;58.20
60287;DHT22;46141;52.382;5.270;2023-04-08T11:21:11;22.90;58.00
60287;DHT22;46141;52.382;5.270;2023-04-08T11:23:36;22.90;57.90
60287;DHT22;46141;52.382;5.270;2023-04-08T11:26:03;22.90;58.00
60287;DHT22;46141;52.382;5.270;2023-04-08T11:28:29;22.90;57.90
60287;DHT22;46141;52.382;5.270;2023-04-08T11:30:56;22.90;58.00
60287;DHT22;46141;52.382;5.270;2023-04-08T11:33:24;22.90;58.00
60287;DHT22;46141;52.382;5.270;2023-04-08T11:35:51;22.90;57.80
60287;DHT22;46141;52.382;5.270;2023-04-08T11:38:21;22.90;57.70
60287;DHT22;46141;52.382;5.270;2023-04-08T11:40:55;22.90;57.60
60287;DHT22;46141;52.382;5.270;2023-04-08T11:43:23;22.90;57.80
60287;DHT22;46141;52.382;5.270;2023-04-08T11:45:49;22.90;57.80
60287;DHT22;46141;52.382;5.270;2023-04-08T11:48:16;22.90;57.70
60287;DHT22;46141;52.382;5.270;2023-04-08T11:50:43;22.90;57.80
60287;DHT22;46141;52.382;5.270;2023-04-08T11:53:35;22.90;58.00
60287;DHT22;46141;52.382;5.270;2023-04-08T11:56:28;22.90;58.10
60287;DHT22;46141;52.382;5.270;2023-04-08T11:58:55;22.90;58.10
60287;DHT22;46141;52.382;5.270;2023-04-08T12:01:21;22.90;58.30
60287;DHT22;46141;52.382;5.270;2023-04-08T12:04:12;22.90;58.40
60287;DHT22;46141;52.382;5.270;2023-04-08T12:06:38;22.90;58.30
60287;DHT22;46141;52.382;5.270;2023-04-08T12:09:05;22.90;58.40
60287;DHT22;46141;52.382;5.270;2023-04-08T12:11:32;22.90;58.20
60287;DHT22;46141;52.382;5.270;2023-04-08T12:13:58;23.00;58.20
60287;DHT22;46141;52.382;5.270;2023-04-08T12:16:23;23.10;58.20
60287;DHT22;46141;52.382;5.270;2023-04-08T12:18:49;23.10;58.20
60287;DHT22;46141;52.382;5.270;2023-04-08T12:21:15;23.10;58.10
60287;DHT22;46141;52.382;5.270;2023-04-08T12:23:40;23.10;58.00
60287;DHT22;46141;52.382;5.270;2023-04-08T12:26:06;23.10;57.90
60287;DHT22;46141;52.382;5.270;2023-04-08T12:28:32;23.20;58.30
60287;DHT22;46141;52.382;5.270;2023-04-08T12:30:59;23.20;58.00
60287;DHT22;46141;52.382;5.270;2023-04-08T12:33:25;23.20;58.10
60287;DHT22;46141;52.382;5.270;2023-04-08T12:35:50;23.30;57.80
60287;DHT22;46141;52.382;5.270;2023-04-08T12:38:16;23.30;57.80
60287;DHT22;46141;52.382;5.270;2023-04-08T12:40:42;23.30;57.90
60287;DHT22;46141;52.382;5.270;2023-04-08T12:43:07;23.20;57.80
60287;DHT22;46141;52.382;5.270;2023-04-08T12:45:33;23.20;58.00
60287;DHT22;46141;52.382;5.270;2023-04-08T12:47:59;23.20;57.90
60287;DHT22;46141;52.382;5.270;2023-04-08T12:50:25;23.20;57.80
60287;DHT22;46141;52.382;5.270;2023-04-08T12:52:50;23.20;57.80
60287;DHT22;46141;52.382;5.270;2023-04-08T12:55:16;23.20;57.90
60287;DHT22;46141;52.382;5.270;2023-04-08T12:57:43;23.10;57.50
60287;DHT22;46141;52.382;5.270;2023-04-08T13:00:09;23.10;57.40
60287;DHT22;46141;52.382;5.270;2023-04-08T13:02:35;23.00;57.50
60287;DHT22;46141;52.382;5.270;2023-04-08T13:05:01;23.00;57.50
60287;DHT22;46141;52.382;5.270;2023-04-08T13:07:26;23.00;57.70
60287;DHT22;46141;52.382;5.270;2023-04-08T13:09:52;23.00;57.90
60287;DHT22;46141;52.382;5.270;2023-04-08T13:12:18;22.90;57.90
60287;DHT22;46141;52.382;5.270;2023-04-08T13:14:43;22.90;57.90
60287;DHT22;46141;52.382;5.270;2023-04-08T13:17:09;22.90;58.00
60287;DHT22;46141;52.382;5.270;2023-04-08T13:19:35;22.90;58.10
60287;DHT22;46141;52.382;5.270;2023-04-08T13:22:00;22.80;58.10
60287;DHT22;46141;52.382;5.270;2023-04-08T13:24:26;22.80;58.10
60287;DHT22;46141;52.382;5.270;2023-04-08T13:26:51;22.80;58.10
60287;DHT22;46141;52.382;5.270;2023-04-08T13:29:17;22.80;58.20
60287;DHT22;46141;52.382;5.270;2023-04-08T13:31:43;22.70;58.20
60287;DHT22;46141;52.382;5.270;2023-04-08T13:34:08;22.70;58.30
60287;DHT22;46141;52.382;5.270;2023-04-08T13:36:34;22.70;59.00
60287;DHT22;46141;52.382;5.270;2023-04-08T13:39:00;22.70;58.50
60287;DHT22;46141;52.382;5.270;2023-04-08T13:41:25;22.70;58.50
60287;DHT22;46141;52.382;5.270;2023-04-08T13:43:52;22.70;58.60
60287;DHT22;46141;52.382;5.270;2023-04-08T13:46:18;22.70;58.60
60287;DHT22;46141;52.382;5.270;2023-04-08T13:48:44;22.70;58.70
60287;DHT22;46141;52.382;5.270;2023-04-08T13:51:10;22.70;58.70
60287;DHT22;46141;52.382;5.270;2023-04-08T13:53:36;22.70;58.80
60287;DHT22;46141;52.382;5.270;2023-04-08T13:56:01;22.70;58.30
60287;DHT22;46141;52.382;5.270;2023-04-08T13:58:27;22.60;58.00
60287;DHT22;46141;52.382;5.270;2023-04-08T14:00:53;22.60;58.10
60287;DHT22;46141;52.382;5.270;2023-04-08T14:03:18;22.60;58.10
60287;DHT22;46141;52.382;5.270;2023-04-08T14:05:44;22.60;58.10
60287;DHT22;46141;52.382;5.270;2023-04-08T14:08:10;22.60;58.10
60287;DHT22;46141;52.382;5.270;2023-04-08T14:10:37;22.60;58.10
60287;DHT22;46141;52.382;5.270;2023-04-08T14:13:03;22.60;58.20
60287;DHT22;46141;52.382;5.270;2023-04-08T14:15:29;22.60;58.30
60287;DHT22;46141;52.382;5.270;2023-04-08T14:17:54;22.60;58.30
60287;DHT22;46141;52.382;5.270;2023-04-08T14:20:20;22.50;58.40
60287;DHT22;46141;52.382;5.270;2023-04-08T14:22:45;22.60;58.70
60287;DHT22;46141;52.382;5.270;2023-04-08T14:25:11;22.60;59.00
60287;DHT22;46141;52.382;5.270;2023-04-08T14:27:37;22.60;58.20
60287;DHT22;46141;52.382;5.270;2023-04-08T14:30:03;22.50;58.70
60287;DHT22;46141;52.382;5.270;2023-04-08T14:32:29;22.50;58.60
60287;DHT22;46141;52.382;5.270;2023-04-08T14:34:54;22.60;59.00
60287;DHT22;46141;52.382;5.270;2023-04-08T14:37:20;22.60;59.10
60287;DHT22;46141;52.382;5.270;2023-04-08T14:39:45;22.60;59.50
60287;DHT22;46141;52.382;5.270;2023-04-08T14:42:11;22.70;58.90
60287;DHT22;46141;52.382;5.270;2023-04-08T14:44:37;22.70;58.90
60287;DHT22;46141;52.382;5.270;2023-04-08T14:47:03;22.70;58.70
60287;DHT22;46141;52.382;5.270;2023-04-08T14:49:28;22.80;58.90
60287;DHT22;46141;52.382;5.270;2023-04-08T14:51:54;22.80;59.00
60287;DHT22;46141;52.382;5.270;2023-04-08T14:54:19;22.90;58.90
60287;DHT22;46141;52.382;5.270;2023-04-08T14:56:45;23.00;59.00
60287;DHT22;46141;52.382;5.270;2023-04-08T14:59:11;23.00;58.90
60287;DHT22;46141;52.382;5.270;2023-04-08T15:01:37;23.00;58.40
60287;DHT22;46141;52.382;5.270;2023-04-08T15:04:02;23.00;58.60
60287;DHT22;46141;52.382;5.270;2023-04-08T15:06:28;23.10;58.70
60287;DHT22;46141;52.382;5.270;2023-04-08T15:08:55;23.10;58.70
60287;DHT22;46141;52.382;5.270;2023-04-08T15:11:20;23.10;58.70
60287;DHT22;46141;52.382;5.270;2023-04-08T15:13:47;23.20;58.60
60287;DHT22;46141;52.382;5.270;2023-04-08T15:16:13;23.20;58.50
60287;DHT22;46141;52.382;5.270;2023-04-08T15:18:39;23.20;58.40
60287;DHT22;46141;52.382;5.270;2023-04-08T15:21:04;23.30;58.50
60287;DHT22;46141;52.382;5.270;2023-04-08T15:23:30;23.30;58.50
60287;DHT22;46141;52.382;5.270;2023-04-08T15:25:56;23.30;58.50
60287;DHT22;46141;52.382;5.270;2023-04-08T15:28:22;23.40;58.40
60287;DHT22;46141;52.382;5.270;2023-04-08T15:30:48;23.40;58.40
60287;DHT22;46141;52.382;5.270;2023-04-08T15:33:14;23.40;58.30
60287;DHT22;46141;52.382;5.270;2023-04-08T15:35:44;23.50;58.30
60287;DHT22;46141;52.382;5.270;2023-04-08T15:38:12;23.50;58.00
60287;DHT22;46141;52.382;5.270;2023-04-08T15:40:37;23.50;58.20
60287;DHT22;46141;52.382;5.270;2023-04-08T15:43:03;23.50;58.20
60287;DHT22;46141;52.382;5.270;2023-04-08T15:45:29;23.50;58.10
60287;DHT22;46141;52.382;5.270;2023-04-08T15:47:54;23.60;58.20
60287;DHT22;46141;52.382;5.270;2023-04-08T15:50:20;23.60;58.20